Time;durP1;ratioP1;P1;durP2;ratioP2;P2;SDS_P1;SDS_P2;PMS_P1;PMS_P2;Temp;Humidity;BMP_temperature;BMP_pressure;BME280_temperature;BME280_humidity;BME280_pressure;Samples;Min_cycle;Max_cycle;Signal;HPM_P1;HPM_P2
2021/01/28 00:00:14;;;;;;;84.47;40.63;;;8.10;99.90;;;;;;2075553;28;20032;-75
2021/01/28 00:01:15;;;;;;;93.25;41.47;;;8.10;99.90;;;;;;2079511;28;20021;-75
2021/01/28 00:02:15;;;;;;;87.18;39.85;;;8.10;99.90;;;;;;2079743;28;20487;-76
2021/01/28 00:03:16;;;;;;;83.63;40.28;;;8.10;99.90;;;;;;2079873;28;20101;-76
2021/01/28 00:04:17;;;;;;;95.53;40.55;;;8.10;99.90;;;;;;2079715;28;20021;-77
2021/01/28 00:05:19;;;;;;;92.95;39.65;;;8.10;99.90;;;;;;2080013;28;20021;-76
2021/01/28 00:06:20;;;;;;;90.20;40.92;;;8.10;99.90;;;;;;2079563;28;20384;-75
2021/01/28 00:07:20;;;;;;;87.38;40.42;;;8.10;99.90;;;;;;2078634;28;20060;-76
2021/01/28 00:08:21;;;;;;;97.38;41.45;;;8.20;99.90;;;;;;2079139;28;20446;-75
2021/01/28 00:09:21;;;;;;;90.03;41.95;;;8.10;99.90;;;;;;2070584;28;20169;-74
2021/01/28 00:10:22;;;;;;;86.68;40.35;;;8.20;99.90;;;;;;2071259;28;20034;-75
2021/01/28 00:11:23;;;;;;;90.85;41.22;;;8.10;99.90;;;;;;2080031;28;20030;-75
2021/01/28 00:12:24;;;;;;;83.22;40.65;;;8.10;99.90;;;;;;2079550;28;20029;-76
2021/01/28 00:13:24;;;;;;;87.97;40.88;;;8.10;99.90;;;;;;2080039;28;20417;-77
2021/01/28 00:14:25;;;;;;;82.88;39.85;;;8.20;99.90;;;;;;2079320;28;20064;-76
2021/01/28 00:15:28;;;;;;;87.00;39.78;;;8.10;99.90;;;;;;2080154;28;20535;-75
2021/01/28 00:16:29;;;;;;;85.57;40.42;;;8.10;99.90;;;;;;2079193;28;20427;-75
2021/01/28 00:17:30;;;;;;;91.18;39.38;;;8.10;99.90;;;;;;2079318;28;20026;-77
2021/01/28 00:18:30;;;;;;;89.80;41.00;;;8.10;99.90;;;;;;2079091;28;20053;-75
2021/01/28 00:19:31;;;;;;;84.43;40.28;;;8.20;99.90;;;;;;2071091;28;20653;-76
2021/01/28 00:20:40;;;;;;;88.57;40.83;;;8.10;99.90;;;;;;2070793;28;20022;-76
2021/01/28 00:21:41;;;;;;;87.82;41.05;;;8.10;99.90;;;;;;2080169;28;20546;-76
2021/01/28 00:22:42;;;;;;;78.70;38.05;;;8.10;99.90;;;;;;2079328;28;20033;-76
2021/01/28 00:23:43;;;;;;;89.13;40.20;;;8.10;99.90;;;;;;2074263;28;20101;-76
2021/01/28 00:24:43;;;;;;;87.78;40.42;;;8.20;99.90;;;;;;2070623;28;20469;-75
2021/01/28 00:25:44;;;;;;;97.35;41.47;;;8.20;99.90;;;;;;2079805;28;20038;-75
2021/01/28 00:26:45;;;;;;;93.88;41.85;;;8.20;99.90;;;;;;2078873;28;20029;-76
2021/01/28 00:27:47;;;;;;;87.72;40.47;;;8.20;99.90;;;;;;2079978;28;20079;-77
2021/01/28 00:28:47;;;;;;;85.97;39.45;;;8.20;99.90;;;;;;2079261;28;20038;-75
2021/01/28 00:29:48;;;;;;;90.60;40.75;;;8.20;99.90;;;;;;2079997;28;20021;-77
2021/01/28 00:30:52;;;;;;;82.72;39.15;;;8.20;99.90;;;;;;2079388;28;20075;-78
2021/01/28 00:31:53;;;;;;;85.05;40.13;;;8.20;99.90;;;;;;2079759;28;20931;-77
2021/01/28 00:32:55;;;;;;;82.57;38.25;;;8.20;99.90;;;;;;2079691;28;20017;-77
2021/01/28 00:33:55;;;;;;;86.35;40.17;;;8.20;99.90;;;;;;2079417;28;20493;-77
2021/01/28 00:34:56;;;;;;;83.25;38.90;;;8.20;99.90;;;;;;2079273;28;20029;-78
2021/01/28 00:35:57;;;;;;;95.47;40.17;;;8.20;99.90;;;;;;2079521;28;20500;-77
2021/01/28 00:36:59;;;;;;;102.57;41.67;;;8.20;99.90;;;;;;2078939;28;20025;-76
2021/01/28 00:38:00;;;;;;;86.72;38.67;;;8.20;99.90;;;;;;2079358;28;20064;-77
2021/01/28 00:39:02;;;;;;;84.10;40.65;;;8.20;99.90;;;;;;2079508;28;20061;-77
2021/01/28 00:40:05;;;;;;;95.22;42.83;;;8.20;99.90;;;;;;2079573;28;20528;-76
2021/01/28 00:41:09;;;;;;;91.85;39.67;;;8.20;99.90;;;;;;2079669;28;20026;-76
2021/01/28 00:42:09;;;;;;;88.38;40.97;;;8.20;99.90;;;;;;2079750;28;20031;-75
2021/01/28 00:43:10;;;;;;;88.65;40.08;;;8.20;99.90;;;;;;2079510;28;20036;-75
2021/01/28 00:44:11;;;;;;;97.53;42.83;;;8.20;99.90;;;;;;2079374;28;20033;-75
2021/01/28 00:45:12;;;;;;;86.82;42.78;;;8.20;99.90;;;;;;2079718;28;20097;-76
2021/01/28 00:46:13;;;;;;;81.65;38.65;;;8.20;99.90;;;;;;2079520;28;20029;-76
2021/01/28 00:47:13;;;;;;;86.90;40.03;;;8.20;99.90;;;;;;2078785;28;20671;-76
2021/01/28 00:48:15;;;;;;;85.68;39.45;;;8.20;99.90;;;;;;2070283;28;20493;-76
2021/01/28 00:49:15;;;;;;;82.35;39.20;;;8.20;99.90;;;;;;2071148;28;20034;-75
2021/01/28 00:50:21;;;;;;;95.60;41.28;;;8.20;99.90;;;;;;2079724;28;20029;-76
2021/01/28 00:51:21;;;;;;;85.60;40.55;;;8.20;99.90;;;;;;2080539;28;20388;-75
2021/01/28 00:52:22;;;;;;;86.07;41.05;;;8.30;99.90;;;;;;2080533;28;20037;-76
2021/01/28 00:53:23;;;;;;;87.95;41.10;;;8.30;99.90;;;;;;2071679;28;20436;-75
2021/01/28 00:54:23;;;;;;;92.43;40.72;;;8.20;99.90;;;;;;2064294;28;20030;-76
2021/01/28 00:55:24;;;;;;;84.63;40.65;;;8.30;99.90;;;;;;2071035;28;20037;-78
2021/01/28 00:56:25;;;;;;;83.68;41.25;;;8.20;99.90;;;;;;2079605;28;20163;-76
2021/01/28 00:57:25;;;;;;;92.43;41.97;;;8.30;99.90;;;;;;2079333;28;20056;-77
2021/01/28 00:58:26;;;;;;;90.03;41.75;;;8.20;99.90;;;;;;2079262;28;20499;-75
2021/01/28 00:59:27;;;;;;;88.88;41.78;;;8.30;99.90;;;;;;2078908;28;20610;-75
2021/01/28 01:00:34;;;;;;;84.85;43.10;;;8.30;99.90;;;;;;2079538;28;20028;-76
2021/01/28 01:01:34;;;;;;;90.25;41.88;;;8.30;99.90;;;;;;2070424;28;20076;-75
2021/01/28 01:02:35;;;;;;;82.85;41.35;;;8.20;99.90;;;;;;2070765;28;20101;-77
2021/01/28 01:03:36;;;;;;;89.95;39.97;;;8.30;99.90;;;;;;2079305;28;20021;-74
2021/01/28 01:04:36;;;;;;;88.45;42.97;;;8.20;99.90;;;;;;2079233;28;20026;-76
2021/01/28 01:05:40;;;;;;;85.35;42.08;;;8.20;99.90;;;;;;2079445;28;20041;-76
2021/01/28 01:06:40;;;;;;;80.35;40.53;;;8.20;99.90;;;;;;2079517;28;20435;-75
2021/01/28 01:07:41;;;;;;;91.40;42.50;;;8.20;99.90;;;;;;2079106;28;20029;-75
2021/01/28 01:08:42;;;;;;;81.88;40.47;;;8.20;99.90;;;;;;2079323;28;20128;-75
2021/01/28 01:09:43;;;;;;;83.55;41.00;;;8.20;99.90;;;;;;2079466;28;20033;-76
2021/01/28 01:10:50;;;;;;;82.88;41.10;;;8.20;99.90;;;;;;2069885;28;20026;-76
2021/01/28 01:11:52;;;;;;;85.40;42.03;;;8.20;99.90;;;;;;2071450;28;20060;-77
2021/01/28 01:12:53;;;;;;;87.03;41.00;;;8.20;99.90;;;;;;2078835;28;20025;-77
2021/01/28 01:13:54;;;;;;;85.15;42.90;;;8.20;99.90;;;;;;2078783;28;20060;-76
2021/01/28 01:14:54;;;;;;;85.82;42.05;;;8.20;99.90;;;;;;2078984;28;20037;-75
2021/01/28 01:15:55;;;;;;;81.40;41.00;;;8.20;99.90;;;;;;2079481;28;20061;-76
2021/01/28 01:16:56;;;;;;;79.93;42.67;;;8.20;99.90;;;;;;2069865;28;20077;-76
2021/01/28 01:17:57;;;;;;;86.32;41.00;;;8.20;99.90;;;;;;2070937;28;20077;-74
2021/01/28 01:18:57;;;;;;;82.35;40.80;;;8.20;99.90;;;;;;2078895;28;20033;-74
2021/01/28 01:19:58;;;;;;;81.38;41.55;;;8.20;99.90;;;;;;2079418;28;20053;-75
2021/01/28 01:21:00;;;;;;;85.90;42.65;;;8.20;99.90;;;;;;2079515;28;20108;-75
2021/01/28 01:22:01;;;;;;;90.95;41.80;;;8.20;99.90;;;;;;2070839;28;20464;-75
2021/01/28 01:23:02;;;;;;;98.43;42.13;;;8.20;99.90;;;;;;2062442;28;20164;-76
2021/01/28 01:24:03;;;;;;;88.47;41.88;;;8.20;99.90;;;;;;2070519;28;20017;-77
2021/01/28 01:25:05;;;;;;;83.03;40.25;;;8.20;99.90;;;;;;2069943;28;20575;-75
2021/01/28 01:26:05;;;;;;;81.45;41.20;;;8.20;99.90;;;;;;2070696;28;20473;-76
2021/01/28 01:27:06;;;;;;;89.30;42.63;;;8.20;99.90;;;;;;2078558;28;20022;-77
2021/01/28 01:28:07;;;;;;;83.53;39.75;;;8.20;99.90;;;;;;2078555;28;20531;-77
2021/01/28 01:29:07;;;;;;;84.45;41.60;;;8.20;99.90;;;;;;2079308;28;20021;-76
2021/01/28 01:30:09;;;;;;;86.88;42.17;;;8.30;99.90;;;;;;2079287;28;20037;-77
2021/01/28 01:31:09;;;;;;;77.05;39.83;;;8.30;99.90;;;;;;2079513;28;20044;-76
2021/01/28 01:32:10;;;;;;;91.00;41.35;;;8.20;99.90;;;;;;2079272;28;20500;-76
2021/01/28 01:33:11;;;;;;;86.38;41.30;;;8.30;99.90;;;;;;2079240;28;20040;-75
2021/01/28 01:34:11;;;;;;;84.80;40.80;;;8.30;99.90;;;;;;2079569;28;20110;-77
2021/01/28 01:35:13;;;;;;;85.95;43.22;;;8.30;99.90;;;;;;2078828;28;20096;-76
2021/01/28 01:36:14;;;;;;;101.50;41.90;;;8.30;99.90;;;;;;2078951;28;20229;-77
2021/01/28 01:37:15;;;;;;;92.00;40.83;;;8.30;99.90;;;;;;2078565;28;20025;-76
2021/01/28 01:38:16;;;;;;;88.13;41.55;;;8.30;99.90;;;;;;2078910;28;20033;-75
2021/01/28 01:39:16;;;;;;;77.20;41.10;;;8.30;99.90;;;;;;2070075;28;20080;-76
2021/01/28 01:40:22;;;;;;;92.55;41.38;;;8.30;99.90;;;;;;2070259;28;20405;-77
2021/01/28 01:41:30;;;;;;;93.38;41.38;;;8.30;99.90;;;;;;2078991;28;20491;-76
2021/01/28 01:42:31;;;;;;;89.85;39.95;;;8.30;99.90;;;;;;2079469;28;20100;-77
2021/01/28 01:43:32;;;;;;;85.05;40.15;;;8.30;99.90;;;;;;2078972;28;20465;-76
2021/01/28 01:44:33;;;;;;;95.30;43.90;;;8.30;99.90;;;;;;2079026;28;20032;-76
2021/01/28 01:45:47;;;;;;;89.22;39.97;;;8.30;99.90;;;;;;2070140;28;20444;-77
2021/01/28 01:46:53;;;;;;;80.07;38.97;;;8.30;99.90;;;;;;2071873;28;20036;-77
2021/01/28 01:48:01;;;;;;;77.90;40.40;;;8.20;99.90;;;;;;2078947;28;20029;-75
2021/01/28 01:49:07;;;;;;;88.35;42.25;;;8.20;99.90;;;;;;2079269;28;20033;-77
2021/01/28 01:50:22;;;;;;;86.43;39.13;;;8.20;99.90;;;;;;2078357;28;20033;-76
2021/01/28 01:51:54;;;;;;;75.65;39.10;;;8.20;99.90;;;;;;2079125;28;20025;-76
2021/01/28 01:52:57;;;;;;;92.80;39.60;;;8.20;99.90;;;;;;2070573;28;20091;-76
2021/01/28 01:54:12;;;;;;;82.38;40.03;;;8.20;99.90;;;;;;2078961;28;20405;-76
2021/01/28 01:55:13;;;;;;;81.10;38.03;;;8.20;99.90;;;;;;2078961;28;20033;-75
2021/01/28 01:56:20;;;;;;;85.53;39.05;;;8.20;99.90;;;;;;2078708;28;20025;-74
2021/01/28 01:57:25;;;;;;;84.95;37.63;;;8.20;99.90;;;;;;2070563;28;20128;-76
2021/01/28 01:58:57;;;;;;;83.53;39.90;;;8.20;99.90;;;;;;2077597;28;20044;-76
2021/01/28 02:00:08;;;;;;;77.97;37.35;;;8.20;99.90;;;;;;2064650;28;20042;-77
2021/01/28 02:01:09;;;;;;;78.97;37.40;;;8.10;99.90;;;;;;2070987;28;20022;-76
2021/01/28 02:02:14;;;;;;;80.22;37.00;;;8.10;99.90;;;;;;2070932;28;20034;-75
2021/01/28 02:03:14;;;;;;;84.13;39.85;;;8.20;99.90;;;;;;2078902;28;20108;-75
2021/01/28 02:04:17;;;;;;;80.53;37.95;;;8.10;99.90;;;;;;2079035;28;20026;-75
2021/01/28 02:05:25;;;;;;;76.03;37.92;;;8.20;99.90;;;;;;2079146;28;20108;-76
2021/01/28 02:06:36;;;;;;;72.35;36.45;;;8.20;99.90;;;;;;2078728;28;20021;-78
2021/01/28 02:07:37;;;;;;;81.10;37.47;;;8.20;99.90;;;;;;2078663;28;20022;-76
2021/01/28 02:08:37;;;;;;;77.75;36.08;;;8.20;99.90;;;;;;2078593;28;20075;-75
2021/01/28 02:09:38;;;;;;;78.53;38.13;;;8.20;99.90;;;;;;2079076;28;20515;-76
2021/01/28 02:10:38;;;;;;;86.40;39.85;;;8.20;99.90;;;;;;2069832;28;20029;-76
2021/01/28 02:11:43;;;;;;;73.75;35.72;;;8.20;99.90;;;;;;2070676;28;20081;-76
2021/01/28 02:12:43;;;;;;;76.95;35.40;;;8.20;99.90;;;;;;2078687;28;20021;-76
2021/01/28 02:13:46;;;;;;;81.82;37.85;;;8.20;99.90;;;;;;2079097;28;20049;-76
2021/01/28 02:14:49;;;;;;;76.93;38.42;;;8.20;99.90;;;;;;2078978;28;20376;-77
2021/01/28 02:15:50;;;;;;;69.30;36.58;;;8.20;99.90;;;;;;2078915;28;20022;-75
2021/01/28 02:17:03;;;;;;;77.60;38.15;;;8.20;99.90;;;;;;2078391;28;20056;-76
2021/01/28 02:18:04;;;;;;;73.80;37.25;;;8.20;99.90;;;;;;2078882;28;20472;-76
2021/01/28 02:19:36;;;;;;;80.65;37.90;;;8.10;99.90;;;;;;2069883;28;20026;-76
2021/01/28 02:20:50;;;;;;;73.95;36.40;;;8.10;99.90;;;;;;2064168;28;20030;-76
2021/01/28 02:21:51;;;;;;;76.00;35.85;;;8.10;99.90;;;;;;2079555;28;20025;-76
2021/01/28 02:23:07;;;;;;;79.18;38.17;;;8.10;99.90;;;;;;2078670;28;20102;-76
2021/01/28 02:24:43;;;;;;;72.40;37.80;;;8.10;99.90;;;;;;2078741;28;20025;-76
2021/01/28 02:25:45;;;;;;;74.82;35.85;;;8.10;99.90;;;;;;2076656;28;20037;-76
2021/01/28 02:26:48;;;;;;;77.85;36.22;;;8.10;99.90;;;;;;2077915;28;20040;-76
2021/01/28 02:27:50;;;;;;;80.85;37.45;;;8.10;99.90;;;;;;2079047;28;20041;-76
2021/01/28 02:28:50;;;;;;;74.07;36.00;;;8.10;99.90;;;;;;2078018;28;20029;-77
2021/01/28 02:29:51;;;;;;;76.35;37.63;;;8.10;99.90;;;;;;2079029;28;20029;-76
2021/01/28 02:30:58;;;;;;;67.18;34.85;;;8.10;99.90;;;;;;2079645;28;20022;-75
2021/01/28 02:31:59;;;;;;;75.38;36.35;;;8.10;99.90;;;;;;2080716;28;20095;-76
2021/01/28 02:33:01;;;;;;;77.63;37.83;;;8.10;99.90;;;;;;2081067;28;20048;-76
2021/01/28 02:34:04;;;;;;;73.55;37.05;;;8.10;99.90;;;;;;2071881;28;20022;-77
2021/01/28 02:35:07;;;;;;;71.93;35.88;;;8.20;99.90;;;;;;2072278;28;20030;-76
2021/01/28 02:36:08;;;;;;;71.32;34.67;;;8.10;99.90;;;;;;2080404;28;20357;-76
2021/01/28 02:37:15;;;;;;;82.80;36.55;;;8.10;99.90;;;;;;2079656;28;20029;-75
2021/01/28 02:38:16;;;;;;;67.43;34.47;;;8.20;99.90;;;;;;2079697;28;20033;-76
2021/01/28 02:39:21;;;;;;;77.15;36.30;;;8.20;99.90;;;;;;2079922;28;20025;-77
2021/01/28 02:40:25;;;;;;;77.63;36.13;;;8.20;99.90;;;;;;2080595;28;20022;-76
2021/01/28 02:41:26;;;;;;;80.22;35.67;;;8.20;99.90;;;;;;2079969;28;20136;-77
2021/01/28 02:42:31;;;;;;;75.43;35.67;;;8.20;99.90;;;;;;2080045;28;20091;-76
2021/01/28 02:43:31;;;;;;;78.28;36.47;;;8.20;99.90;;;;;;2080306;28;20075;-75
2021/01/28 02:44:32;;;;;;;85.40;38.92;;;8.20;99.90;;;;;;2080299;28;20511;-75
2021/01/28 02:45:36;;;;;;;74.18;35.00;;;8.20;99.90;;;;;;2080529;28;20377;-76
2021/01/28 02:46:37;;;;;;;77.63;36.13;;;8.20;99.90;;;;;;2080456;28;20025;-77
2021/01/28 02:47:37;;;;;;;80.00;36.60;;;8.20;99.90;;;;;;2080069;28;20156;-75
2021/01/28 02:48:38;;;;;;;75.80;37.03;;;8.30;99.90;;;;;;2071178;28;20029;-75
2021/01/28 02:49:39;;;;;;;76.55;36.63;;;8.30;99.90;;;;;;2071902;28;20108;-76
2021/01/28 02:50:40;;;;;;;82.00;37.30;;;8.30;99.90;;;;;;2071437;28;20054;-76
2021/01/28 02:51:41;;;;;;;71.47;35.65;;;8.30;99.90;;;;;;2080669;28;20026;-75
2021/01/28 02:52:42;;;;;;;78.65;36.15;;;8.30;99.90;;;;;;2080301;28;20079;-77
2021/01/28 02:53:45;;;;;;;70.57;33.47;;;8.30;99.90;;;;;;2071844;28;20054;-78
2021/01/28 02:54:48;;;;;;;73.82;34.17;;;8.30;99.90;;;;;;2071643;28;20029;-76
2021/01/28 02:55:49;;;;;;;73.25;33.10;;;8.30;99.90;;;;;;2080291;28;20473;-76
2021/01/28 02:56:49;;;;;;;83.13;37.83;;;8.30;99.90;;;;;;2079648;28;20113;-77
2021/01/28 02:57:50;;;;;;;90.57;37.50;;;8.30;99.90;;;;;;2080625;28;20025;-76
2021/01/28 02:58:51;;;;;;;74.70;32.90;;;8.30;99.90;;;;;;2080089;28;20033;-76
2021/01/28 02:59:51;;;;;;;78.60;33.97;;;8.30;99.90;;;;;;2080383;28;20028;-76
2021/01/28 03:00:52;;;;;;;71.80;32.20;;;8.30;99.90;;;;;;2080564;28;20507;-77
2021/01/28 03:02:01;;;;;;;79.68;34.63;;;8.30;99.90;;;;;;2081509;28;20408;-76
2021/01/28 03:03:08;;;;;;;77.40;33.20;;;8.30;99.90;;;;;;2081228;28;20079;-76
2021/01/28 03:04:10;;;;;;;68.40;32.75;;;8.30;99.90;;;;;;2081434;28;20089;-76
2021/01/28 03:05:10;;;;;;;81.45;32.97;;;8.30;99.90;;;;;;2081309;28;20027;-76
2021/01/28 03:06:12;;;;;;;61.95;30.65;;;8.30;99.90;;;;;;2081679;28;20022;-76
2021/01/28 03:07:15;;;;;;;72.22;33.40;;;8.30;99.90;;;;;;2072167;28;20635;-77
2021/01/28 03:08:17;;;;;;;71.00;32.35;;;8.30;99.90;;;;;;2072939;28;20413;-76
2021/01/28 03:09:17;;;;;;;77.00;32.55;;;8.30;99.90;;;;;;2081694;28;20472;-77
2021/01/28 03:10:21;;;;;;;86.47;32.63;;;8.30;99.90;;;;;;2081480;28;20143;-77
2021/01/28 03:11:21;;;;;;;78.43;32.88;;;8.30;99.90;;;;;;2081587;28;20029;-76
2021/01/28 03:12:22;;;;;;;69.85;33.13;;;8.30;99.90;;;;;;2080863;28;20495;-77
2021/01/28 03:13:23;;;;;;;71.38;31.00;;;8.30;99.90;;;;;;2080995;28;20026;-75
2021/01/28 03:14:24;;;;;;;81.00;33.20;;;8.30;99.90;;;;;;2081554;28;20476;-76
2021/01/28 03:15:26;;;;;;;68.25;30.23;;;8.40;99.90;;;;;;2081329;28;20037;-76
2021/01/28 03:16:26;;;;;;;75.47;30.02;;;8.30;99.90;;;;;;2081447;28;20030;-76
2021/01/28 03:17:27;;;;;;;78.13;32.00;;;8.30;99.90;;;;;;2081125;28;20544;-76
2021/01/28 03:18:28;;;;;;;67.63;30.10;;;8.40;99.90;;;;;;2081201;28;20055;-76
2021/01/28 03:19:28;;;;;;;80.78;31.45;;;8.40;99.90;;;;;;2081680;28;20064;-76
2021/01/28 03:20:29;;;;;;;67.30;30.13;;;8.40;99.90;;;;;;2081457;28;20060;-76
2021/01/28 03:21:29;;;;;;;64.20;31.05;;;8.40;99.90;;;;;;2081588;28;20480;-76
2021/01/28 03:22:30;;;;;;;68.20;30.73;;;8.30;99.90;;;;;;2081644;28;20143;-75
2021/01/28 03:23:30;;;;;;;62.72;30.75;;;8.30;99.90;;;;;;2081126;28;20056;-76
2021/01/28 03:24:31;;;;;;;71.30;30.38;;;8.30;99.90;;;;;;2073043;28;20397;-76
2021/01/28 03:25:32;;;;;;;67.13;31.00;;;8.30;99.90;;;;;;2064607;28;20026;-76
2021/01/28 03:26:32;;;;;;;73.53;31.50;;;8.30;99.90;;;;;;2072321;28;20028;-76
2021/01/28 03:27:33;;;;;;;67.72;30.80;;;8.30;99.90;;;;;;2081158;28;20017;-75
2021/01/28 03:28:34;;;;;;;75.53;30.83;;;8.30;99.90;;;;;;2081215;28;20453;-78
2021/01/28 03:29:34;;;;;;;65.35;28.50;;;8.40;99.90;;;;;;2081711;28;20030;-76
2021/01/28 03:30:40;;;;;;;64.07;29.60;;;8.30;99.90;;;;;;2081333;28;20028;-76
2021/01/28 03:31:41;;;;;;;63.25;29.55;;;8.30;99.90;;;;;;2081398;28;20029;-76
2021/01/28 03:32:42;;;;;;;59.80;29.60;;;8.40;99.90;;;;;;2081632;28;20060;-77
2021/01/28 03:33:42;;;;;;;68.07;29.02;;;8.30;99.90;;;;;;2081137;28;20658;-76
2021/01/28 03:34:43;;;;;;;60.45;27.40;;;8.30;99.90;;;;;;2081434;28;20068;-77
2021/01/28 03:35:45;;;;;;;68.47;28.52;;;8.30;99.90;;;;;;2081409;28;20128;-75
2021/01/28 03:36:46;;;;;;;59.72;28.30;;;8.30;99.90;;;;;;2080522;28;20155;-76
2021/01/28 03:37:48;;;;;;;61.08;29.42;;;8.30;99.90;;;;;;2081482;28;20017;-75
2021/01/28 03:38:48;;;;;;;69.35;29.70;;;8.30;99.90;;;;;;2080633;28;20116;-75
2021/01/28 03:39:49;;;;;;;59.65;27.95;;;8.30;99.90;;;;;;2081430;28;20026;-75
2021/01/28 03:40:51;;;;;;;60.83;27.92;;;8.30;99.90;;;;;;2081316;28;20029;-76
2021/01/28 03:41:52;;;;;;;60.63;29.55;;;8.30;99.90;;;;;;2080649;28;20030;-77
2021/01/28 03:42:53;;;;;;;61.53;28.98;;;8.30;99.90;;;;;;2080601;28;20427;-76
2021/01/28 03:43:54;;;;;;;59.75;28.33;;;8.30;99.90;;;;;;2072410;28;20081;-76
2021/01/28 03:44:54;;;;;;;62.78;31.83;;;8.30;99.90;;;;;;2072514;28;20037;-76
2021/01/28 03:45:55;;;;;;;60.92;27.52;;;8.30;99.90;;;;;;2081461;28;20377;-75
2021/01/28 03:46:56;;;;;;;61.35;29.20;;;8.30;99.90;;;;;;2080795;28;20523;-77
2021/01/28 03:47:58;;;;;;;55.50;27.05;;;8.30;99.90;;;;;;2081444;28;20103;-76
2021/01/28 03:48:59;;;;;;;61.92;29.00;;;8.30;99.90;;;;;;2071834;28;20374;-76
2021/01/28 03:49:59;;;;;;;52.78;29.88;;;8.30;99.90;;;;;;2072786;28;20028;-75
2021/01/28 03:51:00;;;;;;;56.80;28.42;;;8.30;99.90;;;;;;2080549;28;20057;-75
2021/01/28 03:52:00;;;;;;;65.50;29.92;;;8.30;99.90;;;;;;2080924;28;20063;-77
2021/01/28 03:53:01;;;;;;;61.80;29.83;;;8.30;99.90;;;;;;2081213;28;20022;-77
2021/01/28 03:54:02;;;;;;;64.25;31.00;;;8.30;99.90;;;;;;2081506;28;20025;-75
2021/01/28 03:55:04;;;;;;;61.60;29.08;;;8.30;99.90;;;;;;2081150;28;20034;-77
2021/01/28 03:56:05;;;;;;;55.03;29.10;;;8.30;99.90;;;;;;2081010;28;20025;-76
2021/01/28 03:57:05;;;;;;;58.28;28.00;;;8.30;99.90;;;;;;2080455;28;20068;-75
2021/01/28 03:58:06;;;;;;;52.20;27.42;;;8.40;99.90;;;;;;2081307;28;20021;-77
2021/01/28 03:59:07;;;;;;;61.33;30.27;;;8.40;99.90;;;;;;2071929;28;20085;-77
2021/01/28 04:00:09;;;;;;;57.55;28.48;;;8.30;99.90;;;;;;2072723;28;20088;-77
2021/01/28 04:01:10;;;;;;;54.35;29.33;;;8.30;99.90;;;;;;2072624;28;20433;-76
2021/01/28 04:02:10;;;;;;;59.60;28.95;;;8.30;99.90;;;;;;2080152;28;20029;-75
2021/01/28 04:03:11;;;;;;;65.85;30.55;;;8.30;99.90;;;;;;2080131;28;20018;-75
2021/01/28 04:04:12;;;;;;;57.67;28.73;;;8.40;99.90;;;;;;2080304;28;20021;-75
2021/01/28 04:05:13;;;;;;;55.45;29.08;;;8.40;99.90;;;;;;2079969;28;20025;-75
2021/01/28 04:06:14;;;;;;;55.95;29.77;;;8.40;99.90;;;;;;2079379;28;20064;-75
2021/01/28 04:07:15;;;;;;;53.58;28.88;;;8.30;99.90;;;;;;2079002;28;20065;-75
2021/01/28 04:08:15;;;;;;;57.25;30.27;;;8.30;99.90;;;;;;2079776;28;20022;-77
2021/01/28 04:09:16;;;;;;;52.45;28.80;;;8.30;99.90;;;;;;2079579;28;20026;-76
2021/01/28 04:10:21;;;;;;;54.75;28.30;;;8.30;99.90;;;;;;2080219;28;20389;-75
2021/01/28 04:11:21;;;;;;;60.88;31.10;;;8.30;99.90;;;;;;2079898;28;20029;-76
2021/01/28 04:12:22;;;;;;;55.28;28.65;;;8.30;99.90;;;;;;2079908;28;20025;-75
2021/01/28 04:13:22;;;;;;;50.78;28.15;;;8.30;99.90;;;;;;2079821;28;20477;-75
2021/01/28 04:14:23;;;;;;;58.78;30.30;;;8.30;99.90;;;;;;2079541;28;20051;-76
2021/01/28 04:15:24;;;;;;;56.67;29.98;;;8.30;99.90;;;;;;2079644;28;20288;-75
2021/01/28 04:16:25;;;;;;;61.00;31.38;;;8.30;99.90;;;;;;2079813;28;20026;-76
2021/01/28 04:17:27;;;;;;;56.50;30.00;;;8.30;99.90;;;;;;2079135;28;20422;-76
2021/01/28 04:18:28;;;;;;;54.83;30.05;;;8.30;99.90;;;;;;2079672;28;20638;-76
2021/01/28 04:19:28;;;;;;;55.65;28.70;;;8.30;99.90;;;;;;2079520;28;20034;-75
2021/01/28 04:20:32;;;;;;;57.60;29.17;;;8.40;99.90;;;;;;2080380;28;20479;-75
2021/01/28 04:21:33;;;;;;;56.33;29.77;;;8.30;99.90;;;;;;2080709;28;20022;-76
2021/01/28 04:22:34;;;;;;;56.03;29.33;;;8.40;99.90;;;;;;2080513;28;20022;-76
2021/01/28 04:23:35;;;;;;;50.78;29.63;;;8.40;99.90;;;;;;2080655;28;20083;-76
2021/01/28 04:24:36;;;;;;;49.58;29.00;;;8.40;99.90;;;;;;2080455;28;20025;-76
2021/01/28 04:25:36;;;;;;;53.00;30.17;;;8.30;99.90;;;;;;2075737;28;20037;-76
2021/01/28 04:26:37;;;;;;;60.85;30.88;;;8.40;99.90;;;;;;2074264;28;20096;-77
2021/01/28 04:27:38;;;;;;;57.22;30.27;;;8.40;99.90;;;;;;2079213;28;20064;-77
2021/01/28 04:28:38;;;;;;;49.83;29.33;;;8.40;99.90;;;;;;2079268;28;20029;-77
2021/01/28 04:29:39;;;;;;;54.88;29.65;;;8.40;99.90;;;;;;2079508;28;20029;-75
2021/01/28 04:30:40;;;;;;;50.92;30.13;;;8.30;99.90;;;;;;2079487;28;20698;-77
2021/01/28 04:31:40;;;;;;;50.80;28.92;;;8.30;99.90;;;;;;2080047;28;20030;-77
2021/01/28 04:32:41;;;;;;;49.53;29.25;;;8.40;99.90;;;;;;2079509;28;20033;-77
2021/01/28 04:33:42;;;;;;;51.45;28.67;;;8.30;99.90;;;;;;2080016;28;20040;-76
2021/01/28 04:34:42;;;;;;;51.67;29.45;;;8.40;99.90;;;;;;2079548;28;20477;-75
2021/01/28 04:35:43;;;;;;;47.63;28.48;;;8.40;99.90;;;;;;2079861;28;20083;-77
2021/01/28 04:36:43;;;;;;;46.90;29.45;;;8.30;99.90;;;;;;2078945;28;20048;-75
2021/01/28 04:37:44;;;;;;;53.78;29.02;;;8.30;99.90;;;;;;2079318;28;20084;-75
2021/01/28 04:38:44;;;;;;;55.70;28.13;;;8.40;99.90;;;;;;2079089;28;20029;-76
2021/01/28 04:39:45;;;;;;;48.40;27.55;;;8.40;99.90;;;;;;2079815;28;20029;-76
2021/01/28 04:40:56;;;;;;;52.65;28.00;;;8.30;99.90;;;;;;2079388;28;20017;-77
2021/01/28 04:41:57;;;;;;;48.80;27.63;;;8.30;99.90;;;;;;2079665;28;20033;-76
2021/01/28 04:43:04;;;;;;;48.00;28.40;;;8.30;99.90;;;;;;2070678;28;20117;-77
2021/01/28 04:44:07;;;;;;;50.63;28.02;;;8.30;99.90;;;;;;2071918;28;20030;-76
2021/01/28 04:45:08;;;;;;;51.63;28.35;;;8.30;99.90;;;;;;2079265;28;20060;-77
2021/01/28 04:46:17;;;;;;;50.65;29.13;;;8.30;99.90;;;;;;2079612;28;20025;-76
2021/01/28 04:47:20;;;;;;;42.85;26.48;;;8.30;99.90;;;;;;2078653;28;20381;-76
2021/01/28 04:48:21;;;;;;;44.70;26.65;;;8.30;99.90;;;;;;2079191;28;20495;-77
2021/01/28 04:49:24;;;;;;;46.38;27.58;;;8.30;99.90;;;;;;2079287;28;20048;-76
2021/01/28 04:50:30;;;;;;;48.70;26.40;;;8.30;99.90;;;;;;2070650;28;20579;-77
2021/01/28 04:51:32;;;;;;;44.40;27.55;;;8.30;99.90;;;;;;2071479;28;20026;-76
2021/01/28 04:52:40;;;;;;;41.63;26.83;;;8.30;99.90;;;;;;2079639;28;20029;-76
2021/01/28 04:53:50;;;;;;;42.53;25.00;;;8.30;99.90;;;;;;2079065;28;20025;-77
2021/01/28 04:54:54;;;;;;;42.78;26.83;;;8.30;99.90;;;;;;2079588;28;20037;-75
2021/01/28 04:55:54;;;;;;;44.67;27.30;;;8.30;99.90;;;;;;2079571;28;20048;-76
2021/01/28 04:56:57;;;;;;;44.78;27.48;;;8.30;99.90;;;;;;2069823;28;20509;-76
2021/01/28 04:57:58;;;;;;;43.97;27.15;;;8.30;99.90;;;;;;2070984;28;20081;-76
2021/01/28 04:59:33;;;;;;;47.63;26.58;;;8.30;99.90;;;;;;2078304;28;20116;-75
2021/01/28 05:00:34;;;;;;;47.05;26.42;;;8.30;99.90;;;;;;2065587;28;20862;-75
2021/01/28 05:01:36;;;;;;;43.63;27.60;;;8.30;99.90;;;;;;2070738;28;20037;-77
2021/01/28 05:02:37;;;;;;;40.15;25.60;;;8.30;99.90;;;;;;2079479;28;20025;-76
2021/01/28 05:03:52;;;;;;;46.78;26.92;;;8.30;99.90;;;;;;2079437;28;20017;-74
2021/01/28 05:05:05;;;;;;;40.85;26.05;;;8.30;99.90;;;;;;2079154;28;20032;-77
2021/01/28 05:06:06;;;;;;;41.70;27.25;;;8.30;99.90;;;;;;2079453;28;20057;-77
2021/01/28 05:07:13;;;;;;;42.55;26.52;;;8.30;99.90;;;;;;2078921;28;20026;-76
2021/01/28 05:08:15;;;;;;;41.15;25.67;;;8.30;99.90;;;;;;2079098;28;20087;-77
2021/01/28 05:09:16;;;;;;;51.42;28.35;;;8.30;99.90;;;;;;2079392;28;20065;-77
2021/01/28 05:10:54;;;;;;;44.28;26.23;;;8.30;99.90;;;;;;2079573;28;20052;-76
2021/01/28 05:11:57;;;;;;;48.05;27.95;;;8.30;99.90;;;;;;2079567;28;20679;-77
2021/01/28 05:12:59;;;;;;;47.60;27.80;;;8.30;99.90;;;;;;2078843;28;20156;-75
2021/01/28 05:14:22;;;;;;;47.25;26.90;;;8.30;99.90;;;;;;2078587;28;20021;-77
2021/01/28 05:15:36;;;;;;;41.88;27.08;;;8.30;99.90;;;;;;2079355;28;20026;-74
2021/01/28 05:16:45;;;;;;;47.15;26.65;;;8.30;99.90;;;;;;2079658;28;20079;-75
2021/01/28 05:18:09;;;;;;;46.27;26.57;;;8.30;99.90;;;;;;2079233;28;20033;-76
2021/01/28 05:19:31;;;;;;;44.45;26.27;;;8.20;99.90;;;;;;2073633;28;20370;-76
2021/01/28 05:20:32;;;;;;;46.95;25.65;;;8.20;99.90;;;;;;2079113;28;20033;-76
2021/01/28 05:21:44;;;;;;;43.60;25.42;;;8.20;99.90;;;;;;2079819;28;20027;-75
2021/01/28 05:23:03;;;;;;;45.88;25.42;;;8.20;99.90;;;;;;2079257;28;20025;-76